Aviation Digital Data Service (ADDS)

Output produced by METARs form (1356 UTC 28 August 2016)
found at http://aviationweather.gov/adds/metars/
 
KMBS 281120Z 2812/2912 21005KT 5SM BR BKN005 BKN035 
     FM281300 25007KT P6SM BKN020 OVC040 
     FM281700 28009KT P6SM BKN040 
     FM282000 32009KT P6SM SCT040 
     FM290100 36004KT P6SM SKC 
     FM290800 VRB03KT 4SM BR SKC